Tiempo atmosférico en la estación meteorológica de Forua, Bizkaia (45 m.)



Fecha
DESCASC
Temp. máxima en grados centígrados (hora)
DESCASC
Temp. mínima en grados centígrados (hora)
DESCASC
Temp. media en grados centígrados
DESCASC
Racha de viento máxima en m/sg (hora)
DESCASC
Velocidad máxima media en intervalos de 10 minutos(hora)
DESCASC
Precipitaciones diarias en mm
DESCASC
Precipitaciones de 00:00 a 06:00 en mm
DESCASC
Precipitaciones de 06:00 a 12:00 en mm
DESCASC
Precipitaciones de 12:00 a 18:00 en mm
DESCASC
Precipitaciones de 18:00 a 24:00 en mm
DESCASC
16-01-2020 18.9 (14:00) 6.4 (00:00) 12.6 16.39 (23:59) 7.78 (23:59) 0 0 0 0 0
15-01-2020 17 (14:20) 6.1 (23:40) 11.5 16.94 (09:10) 9.72 (09:30) 0 0 0 0 0
14-01-2020 16.5 (15:00) 10.4 (01:00) 13.4 17.5 (14:20) 11.11 (13:10) 0 0 0 0 0
13-01-2020 15.8 (15:30) 2.3 (01:20) 9.1 10.56 (18:30) 6.39 (19:10) 0 0 0 0 0
12-01-2020 14.5 (15:00) 1.5 (00:00) 8 4.44 (04:30) 3.61 (04:30) 0 0 0 0 0
11-01-2020 14.1 (15:30) 2.8 (00:00) 8.5 4.72 (16:30) 3.33 (07:50) 0.2 0 0 0.2 0
10-01-2020 12.9 (16:00) 5.4 (00:00) 9.1 8.61 (00:40) 4.72 (13:40) 4.2 2.8 1 0.4 0
09-01-2020 17.4 (16:10) 6.1 (00:00) 11.7 21.39 (16:50) 10 (16:50) 1.4 0 0 0.6 0.8
08-01-2020 16.9 (14:10) 4.9 (00:00) 10.9 5.28 (15:30) 3.61 (23:10) 0 0 0 0 0
07-01-2020 15.8 (14:30) 3.8 (00:00) 9.8 5.56 (17:50) 3.61 (17:40) 0 0 0 0 0
06-01-2020 14.4 (15:30) 0 (00:00) 7.2 6.39 (15:50) 3.89 (16:00) 0.2 0 0.2 0 0
05-01-2020 11.7 (14:30) 2.6 (00:00) 7.1 5.56 (14:50) 3.06 (14:10) 0 0 0 0 0
04-01-2020 11.5 (14:10) 6.8 (00:00) 9.2 5.83 (14:20) 3.33 (14:30) 5.2 1.4 2.6 1 0.2
03-01-2020 10.1 (16:10) 2.9 (00:00) 6.5 4.72 (04:00) 3.61 (04:00) 0.8 0 0 0 0.8
02-01-2020 15.7 (14:40) 1 (00:00) 8.3 4.17 (09:00) 3.33 (08:40) 0 0 0 0 0
01-01-2020 14.7 (15:30) 3.5 (00:00) 9.1 4.17 (12:30) 2.78 (06:40) 0 0 0 0 0
31-12-2019 13.9 (16:40) 2.5 (00:00) 8.2 5.28 (03:00) 3.89 (05:00) 0 0 0 0 0
30-12-2019 -- (--) -- (--) -- -- (--) -- (--) -- 0 0.2 0 --
29-12-2019 13.2 (14:00) 0.7 (00:00) 6.9 5 (14:40) 3.33 (14:40) 0.4 0.2 0.2 0 0
28-12-2019 12.1 (14:30) 1.5 (00:00) 6.8 6.67 (15:20) 4.72 (13:30) 0 0 0 0 0
27-12-2019 14 (14:10) 1.6 (00:00) 7.8 7.78 (15:20) 5 (15:30) 0 0 0 0 0
26-12-2019 18 (03:00) 4.4 (00:00) 11.2 10.83 (03:40) 6.11 (03:40) 0 0 0 0 0
25-12-2019 21.3 (15:20) 6.1 (00:00) 13.7 5.56 (23:40) 4.44 (23:40) 0 0 0 0 0
24-12-2019 21 (14:20) 8.9 (00:00) 14.9 5 (10:30) 3.61 (10:20) 0 0 0 0 0
23-12-2019 15.6 (14:00) 8.2 (00:00) 11.9 13.06 (00:40) 5.56 (00:40) 1.8 1.6 0.2 0 0
22-12-2019 15 (13:30) 10.4 (00:00) 12.7 19.44 (17:50) 10.28 (17:50) 12.4 3.4 0 4 5
21-12-2019 21.8 (14:40) 6.6 (00:00) 14.2 18.89 (14:50) 10.56 (14:50) 4.6 0 0 2.6 2
20-12-2019 16.5 (00:00) 9.1 (00:00) 12.8 18.33 (00:20) 10.28 (00:20) 20.2 11 2.6 3.2 3.4

Gráficas

Temp. máximas Temp. mínimas Temp. medias Precipitaciones Rachas de viento máximas Velocidades máximas media en intervalos de 10 minutos

Datos horarios

Fecha y hora oficial Temperatura (ºC) Velocidad del viento (km/h) Dirección del viento Racha (km/h) Dirección de racha Precipitación (mm) Presión (hPa) Tendencia (hPa) Humedad (%)
2020-01-18 23:00:00 7.8 7 Sudoeste 12 Sudoeste 1 -- -- 98
2020-01-18 22:00:00 7.9 6 Sudoeste 9 Sudoeste 0 -- -- 97
2020-01-18 21:00:00 8.1 6 Sudoeste 18 Oeste 0 -- -- 95
2020-01-18 20:00:00 8.6 5 Noroeste 42 Noroeste 2 -- -- 90
2020-01-18 19:00:00 9.4 8 Sudoeste 57 Noroeste 0.8 -- -- 90
2020-01-18 18:00:00 10.8 26 Noroeste 66 Noroeste 3 -- -- 83
2020-01-18 17:00:00 14.2 23 Oeste 42 Oeste 0 -- -- 62
2020-01-18 16:00:00 15.9 27 Oeste 43 Sudoeste 0 -- -- 57
2020-01-18 15:00:00 15.8 27 Oeste 50 Oeste 0 -- -- 56
2020-01-18 14:00:00 15.8 19 Sudoeste 34 Oeste 0 -- -- 53
2020-01-18 13:00:00 14.3 16 Oeste 35 Sudoeste 0 -- -- 57
2020-01-18 12:00:00 13.9 12 Sudoeste 26 Sudoeste 0 -- -- 56
2020-01-18 11:00:00 12.7 10 Sudoeste 15 Sudoeste 0 -- -- 65
2020-01-18 10:00:00 8.9 10 Oeste 15 Oeste 0 -- -- 82
2020-01-18 09:00:00 6 8 Sudoeste 11 Oeste 0 -- -- 96
2020-01-18 08:00:00 5.4 6 Oeste 16 Sudoeste 0 -- -- 98
2020-01-18 07:00:00 5.3 8 Oeste 12 Oeste 0 -- -- 98
2020-01-18 06:00:00 5.2 0 Calma 7 Norte 0 -- -- 98
2020-01-18 05:00:00 5.3 7 Sudoeste 12 Sudoeste 0 -- -- 98
2020-01-18 04:00:00 5 7 Sudoeste 10 Sudoeste 0 -- -- 98
2020-01-18 03:00:00 5.4 7 Oeste 9 Oeste 0 -- -- 98
2020-01-18 02:00:00 5.4 6 Oeste 9 Oeste 0 -- -- 97
2020-01-18 01:00:00 5.8 6 Sudoeste 10 Sudoeste 0 -- -- 96
2020-01-18 00:00:00 6.6 6 Oeste 9 Oeste 0 -- -- 94
2020-01-17 23:00:00 6.6 0 Calma 9 Sudoeste 0 -- -- 93
2020-01-17 22:00:00 6.7 8 Sudoeste 10 Oeste 0 -- -- 94
2020-01-17 21:00:00 7 8 Sudoeste 12 Sudoeste 0 -- -- 91
2020-01-17 20:00:00 8 6 Sudoeste 12 Sudoeste 0 -- -- 89
2020-01-17 19:00:00 9.1 3 Este 15 Norte 0 -- -- 84
2020-01-17 18:00:00 10.5 3 Norte 19 Norte 0.2 -- -- 76
2020-01-17 17:00:00 12.2 4 Norte 21 Norte 0 -- -- 69
2020-01-17 16:00:00 11.7 6 Nordeste 29 Norte 0 -- -- 80
2020-01-17 15:00:00 11.6 13 Norte 29 Norte 0 -- -- 76
2020-01-17 14:00:00 12.1 8 Oeste 27 Noroeste 0 -- -- 81
2020-01-17 13:00:00 10.5 9 Norte 32 Norte 0.2 -- -- 85
2020-01-17 12:00:00 10.6 6 Sudoeste 17 Sudoeste 0.8 -- -- 95
2020-01-17 11:00:00 9.5 10 Sudoeste 16 Oeste 1.4 -- -- 95
2020-01-17 10:00:00 9.4 6 Sudoeste 15 Sudoeste 0.4 -- -- 93
2020-01-17 09:00:00 9.6 6 Noroeste 23 Sudoeste 1 -- -- 89
2020-01-17 08:00:00 9.7 4 Sur 31 Noroeste 2.6 -- -- 88
2020-01-17 07:00:00 10.3 4 Norte 11 Nordeste 0.2 -- -- 87
2020-01-17 06:00:00 11.1 3 Nordeste 9 Sur 0 -- -- 79
2020-01-17 05:00:00 12.3 6 Sur 14 Noroeste 0 -- -- 72
2020-01-17 04:00:00 13.9 8 Noroeste 28 Oeste 0 -- -- 64
2020-01-17 03:00:00 14.6 18 Oeste 34 Oeste 0 -- -- 55
2020-01-17 02:00:00 15.3 28 Oeste 68 Oeste 0 -- -- 53
2020-01-17 01:00:00 15.7 21 Oeste 45 Oeste 0 -- -- 53
2020-01-17 00:00:00 16.7 28 Oeste 59 Oeste 0 -- -- 48
2020-01-16 23:00:00 17.1 9 Oeste 43 Noroeste 0 -- -- 43
2020-01-16 22:00:00 17.6 11 Noroeste 49 Oeste 0 -- -- 43
2020-01-16 21:00:00 18.1 20 Oeste 38 Oeste 0 -- -- 42
2020-01-16 20:00:00 17.1 4 Sur 23 Sudoeste 0 -- -- 47
2020-01-16 19:00:00 17.6 13 Sudoeste 29 Sudoeste 0 -- -- 47
2020-01-16 18:00:00 17.7 15 Sudoeste 54 Oeste 0 -- -- 47
2020-01-16 17:00:00 17.6 22 Oeste 35 Oeste 0 -- -- 49
2020-01-16 16:00:00 17.2 10 Sudoeste 23 Oeste 0 -- -- 55
2020-01-16 15:00:00 16.9 12 Sudoeste 31 Sur 0 -- -- 58
2020-01-16 14:00:00 18.9 14 Sudoeste 33 Sudoeste 0 -- -- 55
2020-01-16 13:00:00 18 17 Sudoeste 37 Sudoeste 0 -- -- 56
2020-01-16 12:00:00 17.6 23 Sudoeste 38 Oeste 0 -- -- 56
2020-01-16 11:00:00 16.8 15 Sudoeste 32 Sudoeste 0 -- -- 57
2020-01-16 10:00:00 15.6 14 Oeste 26 Sudoeste 0 -- -- 60
2020-01-16 09:00:00 13.9 13 Oeste 33 Oeste 0 -- -- 64
2020-01-16 08:00:00 13.9 21 Oeste 38 Oeste 0 -- -- 64
2020-01-16 07:00:00 14.2 18 Oeste 37 Oeste 0 -- -- 64
2020-01-16 06:00:00 13.9 21 Oeste 31 Oeste 0 -- -- 67
2020-01-16 05:00:00 13.6 18 Oeste 25 Sudoeste 0 -- -- 68
2020-01-16 04:00:00 13.2 15 Oeste 27 Oeste 0 -- -- 71
2020-01-16 03:00:00 12.2 12 Sudoeste 30 Oeste 0 -- -- 75
2020-01-16 02:00:00 11.5 12 Sudoeste 22 Oeste 0 -- -- 75
2020-01-16 01:00:00 7.9 12 Sudoeste 18 Sudoeste 0 -- -- 95
2020-01-16 00:00:00 6.4 9 Sudoeste 13 Sudoeste 0 -- -- 99
2020-01-15 23:00:00 6.8 6 Sudoeste 12 Oeste 0 -- -- 97
2020-01-15 22:00:00 7.3 8 Oeste 9 Oeste 0 -- -- 96
2020-01-15 21:00:00 8.7 5 Sudoeste 10 Oeste 0 -- -- 95
2020-01-15 20:00:00 10.1 4 Nordeste 11 Nordeste 0 -- -- 91
2020-01-15 19:00:00 11.6 5 Nordeste 13 Nordeste 0 -- -- 89
2020-01-15 18:00:00 12.4 8 Nordeste 17 Este 0 -- -- 83
2020-01-15 17:00:00 14.1 12 Nordeste 25 Nordeste 0 -- -- 77
2020-01-15 16:00:00 15.6 12 Nordeste 21 Norte 0 -- -- 73
2020-01-15 15:00:00 16.2 8 Oeste 29 Sudoeste 0 -- -- 57
2020-01-15 14:00:00 16.3 21 Oeste 43 Sudoeste 0 -- -- 54
2020-01-15 13:00:00 15 14 Sudoeste 33 Oeste 0 -- -- 58
2020-01-15 12:00:00 14.4 20 Oeste 46 Oeste 0 -- -- 65
2020-01-15 11:00:00 15 31 Oeste 59 Oeste 0 -- -- 54
2020-01-15 10:00:00 15 32 Oeste 61 Oeste 0 -- -- 53
2020-01-15 09:00:00 15.1 33 Oeste 55 Oeste 0 -- -- 53
2020-01-15 08:00:00 14.3 25 Oeste 48 Oeste 0 -- -- 55
2020-01-15 07:00:00 14.4 31 Oeste 50 Oeste 0 -- -- 57
2020-01-15 06:00:00 14.1 19 Sudoeste 44 Oeste 0 -- -- 59
2020-01-15 05:00:00 13.7 19 Sudoeste 41 Oeste 0 -- -- 60
2020-01-15 04:00:00 13.9 18 Sudoeste 51 Sudoeste 0 -- -- 59
2020-01-15 03:00:00 14.5 23 Oeste 59 Oeste 0 -- -- 56
2020-01-15 02:00:00 13.7 22 Sudoeste 40 Oeste 0 -- -- 59
2020-01-15 01:00:00 13.4 14 Sudoeste 28 Sudoeste 0 -- -- 57
2020-01-15 00:00:00 13.4 11 Sudoeste 42 Oeste 0 -- -- 56
2020-01-14 23:00:00 14.1 26 Oeste 44 Oeste 0 -- -- 53
2020-01-14 22:00:00 13.7 15 Sudoeste 37 Oeste 0 -- -- 53
2020-01-14 21:00:00 14.1 21 Oeste 45 Oeste 0 -- -- 50
2020-01-14 20:00:00 14.4 24 Oeste 46 Oeste 0 -- -- 50
2020-01-14 19:00:00 14.3 19 Oeste 46 Oeste 0 -- -- 50
2020-01-14 18:00:00 14.4 21 Oeste 48 Oeste 0 -- -- 51
2020-01-14 17:00:00 14.7 34 Oeste 54 Oeste 0 -- -- 50
2020-01-14 16:00:00 15.8 33 Oeste 61 Oeste 0 -- -- 46
2020-01-14 15:00:00 16.5 24 Oeste 63 Sudoeste 0 -- -- 46
2020-01-14 14:00:00 16.3 38 Oeste 62 Oeste 0 -- -- 47
2020-01-14 13:00:00 14.7 33 Oeste 60 Oeste 0 -- -- 54
2020-01-14 12:00:00 14.8 31 Oeste 52 Sudoeste 0 -- -- 53
2020-01-14 11:00:00 13 18 Sudoeste 37 Oeste 0 -- -- 62
2020-01-14 10:00:00 11.7 14 Sudoeste 32 Sudoeste 0 -- -- 63
2020-01-14 09:00:00 11.6 15 Sudoeste 34 Sudoeste 0 -- -- 62
2020-01-14 08:00:00 11.2 14 Sudoeste 28 Sudoeste 0 -- -- 62
2020-01-14 07:00:00 11.4 16 Sudoeste 33 Sudoeste 0 -- -- 61
2020-01-14 06:00:00 11.6 15 Sudoeste 29 Oeste 0 -- -- 59
2020-01-14 05:00:00 11.8 14 Sudoeste 34 Sudoeste 0 -- -- 57
2020-01-14 04:00:00 12.1 17 Sudoeste 33 Sudoeste 0 -- -- 56
2020-01-14 03:00:00 12 18 Oeste 53 Oeste 0 -- -- 55
2020-01-14 02:00:00 11.8 15 Oeste 41 Oeste 0 -- -- 54
2020-01-14 01:00:00 10.4 8 Sur 25 Sudoeste 0 -- -- 54
2020-01-14 00:00:00 10.9 13 Sudoeste 26 Oeste 0 -- -- 49
2020-01-13 23:00:00 10.7 8 Oeste 38 Oeste 0 -- -- 45
2020-01-13 22:00:00 10.2 11 Sudoeste 23 Oeste 0 -- -- 45
2020-01-13 21:00:00 10.8 13 Oeste 29 Oeste 0 -- -- 44
2020-01-13 20:00:00 11.3 13 Sudoeste 34 Oeste 0 -- -- 46
2020-01-13 19:00:00 12.6 21 Oeste 38 Sudoeste 0 -- -- 41
2020-01-13 18:00:00 12.2 14 Oeste 24 Oeste 0 -- -- 45
2020-01-13 17:00:00 13.5 15 Oeste 23 Oeste 0 -- -- 43
2020-01-13 16:00:00 15.6 4 Sur 24 Oeste 0 -- -- 43
2020-01-13 15:00:00 15.1 11 Sudoeste 28 Sudoeste 0 -- -- 45
2020-01-13 14:00:00 13.7 12 Sudoeste 23 Sudoeste 0 -- -- 53
2020-01-13 13:00:00 12.1 14 Oeste 29 Oeste 0 -- -- 59
2020-01-13 12:00:00 10.8 4 Noroeste 15 Sudoeste 0 -- -- 75
2020-01-13 11:00:00 8.1 8 Sudoeste 12 Sudoeste 0 -- -- 85
2020-01-13 10:00:00 5.5 8 Sudoeste 11 Sudoeste 0 -- -- 96
2020-01-13 09:00:00 4.6 8 Sudoeste 14 Sudoeste 0 -- -- 99
2020-01-13 08:00:00 3.2 11 Oeste 13 Sudoeste 0 -- -- 100
2020-01-13 07:00:00 2.8 8 Sudoeste 14 Sudoeste 0 -- -- 99
2020-01-13 06:00:00 3.2 12 Sudoeste 16 Sudoeste 0 -- -- 100
2020-01-13 05:00:00 2.6 8 Sudoeste 14 Sudoeste 0 -- -- 99
2020-01-13 04:00:00 2.5 8 Sudoeste 11 Sudoeste 0 -- -- 99
2020-01-13 03:00:00 2.5 7 Sudoeste 11 Sudoeste 0 -- -- 98
2020-01-13 02:00:00 2.5 8 Sudoeste 10 Oeste 0 -- -- 99
2020-01-13 01:00:00 2.8 6 Sudoeste 10 Sudoeste 0 -- -- 98
2020-01-13 00:00:00 2.8 8 Oeste 10 Sudoeste 0 -- -- 96
2020-01-12 23:00:00 3.2 8 Sudoeste 11 Oeste 0 -- -- 96
2020-01-12 22:00:00 4.3 4 Sudoeste 9 Sudoeste 0 -- -- 95
2020-01-12 21:00:00 5.1 7 Sudoeste 9 Oeste 0 -- -- 93
2020-01-12 20:00:00 5.9 6 Oeste 8 Oeste 0 -- -- 90
2020-01-12 19:00:00 8.3 6 Sudoeste 7 Sudoeste 0 -- -- 83
2020-01-12 18:00:00 10.6 3 Nordeste 9 Norte 0 -- -- 77
2020-01-12 17:00:00 12.8 6 Norte 9 Nordeste 0 -- -- 71
2020-01-12 16:00:00 14.2 5 Norte 9 Norte 0 -- -- 64
2020-01-12 15:00:00 14.5 5 Norte 8 Nordeste 0 -- -- 62
2020-01-12 14:00:00 13.6 2 Este 5 Este 0 -- -- 57
2020-01-12 13:00:00 12.3 2 Sur 6 Oeste 0 -- -- 69
2020-01-12 12:00:00 9.5 2 Sur 10 Sudoeste 0 -- -- 83
2020-01-12 11:00:00 6 4 Sudoeste 11 Sudoeste 0 -- -- 94
2020-01-12 10:00:00 3.4 6 Sudoeste 9 Sudoeste 0 -- -- 99
2020-01-12 09:00:00 1.6 6 Sudoeste 10 Sudoeste 0 -- -- 99
2020-01-12 08:00:00 1.6 5 Sudoeste 13 Sudoeste 0 -- -- 99
2020-01-12 07:00:00 1.8 11 Sudoeste 15 Sudoeste 0 -- -- 99
2020-01-12 06:00:00 2.2 6 Sudoeste 13 Sudoeste 0 -- -- 99
2020-01-12 05:00:00 2.2 9 Sudoeste 16 Sudoeste 0 -- -- 99
2020-01-12 04:00:00 2.3 10 Sudoeste 15 Sudoeste 0 -- -- 100
2020-01-12 03:00:00 2.2 8 Sudoeste 14 Sudoeste 0 -- -- 99
2020-01-12 02:00:00 2.3 5 Sudoeste 13 Sudoeste 0 -- -- 99
2020-01-12 01:00:00 2.6 10 Sudoeste 14 Sudoeste 0 -- -- 99
2020-01-12 00:00:00 2.9 7 Sudoeste 12 Sudoeste 0 -- -- 99
2020-01-11 23:00:00 3.4 8 Sudoeste 10 Sudoeste 0 -- -- 98
2020-01-11 22:00:00 4.1 5 Sudoeste 9 Sudoeste 0 -- -- 96
2020-01-11 21:00:00 4.8 7 Sudoeste 8 Oeste 0 -- -- 96
2020-01-11 20:00:00 7.1 0 Calma 4 Norte 0 -- -- 90
2020-01-11 19:00:00 8.3 0 Calma 12 Nordeste 0 -- -- 83
2020-01-11 18:00:00 9.7 7 Nordeste 14 Nordeste 0 -- -- 78
2020-01-11 17:00:00 11.7 6 Nordeste 17 Sudeste 0 -- -- 72
2020-01-11 16:00:00 13.5 5 Este 12 Sudeste 0.2 -- -- 65
2020-01-11 15:00:00 13.7 3 Nordeste 9 Norte 0 -- -- 63
2020-01-11 14:00:00 13.4 4 Sudoeste 9 Sudoeste 0 -- -- 66
2020-01-11 13:00:00 12.2 4 Oeste 9 Oeste 0 -- -- 72
2020-01-11 12:00:00 10.6 5 Sudoeste 9 Sudoeste 0 -- -- 92
2020-01-11 11:00:00 7.8 5 Sudoeste 9 Sudoeste 0 -- -- 100
2020-01-11 10:00:00 6.2 3 Sudoeste 4 Sudoeste 0 -- -- 100
2020-01-11 09:00:00 5.6 3 Sudoeste 11 Sudoeste 0 -- -- 100
2020-01-11 08:00:00 5.8 9 Sudoeste 14 Oeste 0 -- -- 100
2020-01-11 07:00:00 6 7 Oeste 10 Oeste 0 -- -- 100
2020-01-11 06:00:00 5.8 5 Sudoeste 11 Sudoeste 0 -- -- 100
2020-01-11 05:00:00 5.4 4 Sur 12 Sudoeste 0 -- -- 100
2020-01-11 04:00:00 5.3 8 Sudoeste 11 Sudoeste 0 -- -- 100
2020-01-11 03:00:00 4.7 6 Sudoeste 14 Sudoeste 0 -- -- 100
2020-01-11 02:00:00 5 7 Oeste 9 Oeste 0 -- -- 100
2020-01-11 01:00:00 5.1 5 Sudoeste 8 Oeste 0 -- -- 100
2020-01-11 00:00:00 5.4 6 Sudoeste 11 Noroeste 0 -- -- 99
2020-01-10 23:00:00 6 6 Oeste 10 Sudoeste 0 -- -- 98
2020-01-10 22:00:00 7.3 5 Sudoeste 9 Sudoeste 0 -- -- 98
2020-01-10 21:00:00 8 4 Sudoeste 8 Oeste 0 -- -- 97
2020-01-10 20:00:00 8.6 7 Oeste 9 Oeste 0 -- -- 95
2020-01-10 19:00:00 9.3 6 Oeste 11 Sudoeste 0 -- -- 95
2020-01-10 18:00:00 10 7 Oeste 12 Sudoeste 0 -- -- 90
2020-01-10 17:00:00 11.2 3 Nordeste 31 Nordeste 0 -- -- 82
2020-01-10 16:00:00 12.9 12 Norte 22 Nordeste 0 -- -- 72
2020-01-10 15:00:00 12.2 14 Nordeste 30 Nordeste 0 -- -- 71
2020-01-10 14:00:00 11.9 16 Nordeste 29 Nordeste 0 -- -- 77
2020-01-10 13:00:00 11.4 3 Sur 13 Este 0.4 -- -- 93
2020-01-10 12:00:00 10.5 7 Sudoeste 12 Sudoeste 0 -- -- 93
2020-01-10 11:00:00 10 8 Norte 23 Noroeste 0.4 -- -- 90
2020-01-10 10:00:00 9.1 12 Oeste 20 Oeste 0 -- -- 93
2020-01-10 09:00:00 8.9 10 Oeste 21 Norte 0.2 -- -- 91
2020-01-10 08:00:00 9 10 Oeste 28 Noroeste 0.2 -- -- 89
2020-01-10 07:00:00 9 8 Oeste 26 Noroeste 0.2 -- -- 89
2020-01-10 06:00:00 9 12 Noroeste 26 Noroeste 0.4 -- -- 88
2020-01-10 05:00:00 9.1 6 Oeste 21 Oeste 1 -- -- 88
2020-01-10 04:00:00 9.2 9 Oeste 26 Norte 0 -- -- 86
2020-01-10 03:00:00 9.6 5 Noroeste 26 Sudoeste 0 -- -- 83
2020-01-10 02:00:00 10.1 6 Norte 31 Noroeste 1.4 -- -- 80
2020-01-10 01:00:00 11.3 8 Sur 31 Noroeste 0 -- -- 72
2020-01-10 00:00:00 10.9 7 Sudoeste 18 Oeste 0 -- -- 75
2020-01-09 23:00:00 10.8 6 Sudoeste 14 Sudoeste 0 -- -- 80
2020-01-09 22:00:00 10.3 9 Oeste 19 Noroeste 0 -- -- 89
2020-01-09 21:00:00 10.3 6 Sudoeste 15 Oeste 0 -- -- 87
2020-01-09 20:00:00 11.5 9 Noroeste 32 Oeste 0.8 -- -- 80
2020-01-09 19:00:00 11.9 5 Oeste 31 Noroeste 0 -- -- 81
2020-01-09 18:00:00 11.5 10 Oeste 45 Nordeste 0.6 -- -- 83
2020-01-09 17:00:00 13.4 21 Nordeste 77 Nordeste 0 -- -- 74
2020-01-09 16:00:00 17.3 9 Oeste 25 Oeste 0 -- -- 57
2020-01-09 15:00:00 16.3 15 Sudoeste 30 Sudoeste 0 -- -- 55
2020-01-09 14:00:00 17.2 16 Sudoeste 32 Oeste 0 -- -- 54
2020-01-09 13:00:00 16.4 18 Sudoeste 36 Sudoeste 0 -- -- 55
2020-01-09 12:00:00 15.2 13 Sudoeste 30 Oeste 0 -- -- 59
2020-01-09 11:00:00 13.9 15 Sudoeste 28 Oeste 0 -- -- 64
2020-01-09 10:00:00 11.4 12 Oeste 24 Sudoeste 0 -- -- 72
2020-01-09 09:00:00 10.2 9 Sudoeste 21 Sudoeste 0 -- -- 74
2020-01-09 08:00:00 10.7 12 Sudoeste 22 Sudoeste 0 -- -- 72
2020-01-09 07:00:00 9.7 10 Sudoeste 16 Sudoeste 0 -- -- 77
2020-01-09 06:00:00 10.2 9 Sudoeste 14 Sudoeste 0 -- -- 74
2020-01-09 05:00:00 10 5 Sudoeste 12 Sudoeste 0 -- -- 75
2020-01-09 04:00:00 10.7 5 Sur 12 Sudoeste 0 -- -- 72
2020-01-09 03:00:00 10.2 10 Sudoeste 19 Oeste 0 -- -- 77
2020-01-09 02:00:00 7.1 7 Sur 12 Sudoeste 0 -- -- 91
2020-01-09 01:00:00 6.2 11 Oeste 13 Oeste 0 -- -- 97
2020-01-09 00:00:00 6.6 8 Sudoeste 15 Oeste 0 -- -- 97
2020-01-08 23:00:00 6.4 10 Sudoeste 14 Oeste 0 -- -- 95
2020-01-08 22:00:00 7.2 6 Sudoeste 10 Sudoeste 0 -- -- 94
2020-01-08 21:00:00 7.8 8 Sudoeste 9 Sudoeste 0 -- -- 93
2020-01-08 20:00:00 8.8 8 Sudoeste 9 Sudoeste 0 -- -- 92
2020-01-08 19:00:00 10.9 0 Calma 7 Nordeste 0 -- -- 85
2020-01-08 18:00:00 12.2 5 Nordeste 13 Norte 0 -- -- 79
2020-01-08 17:00:00 14.2 9 Norte 19 Nordeste 0 -- -- 66
2020-01-08 16:00:00 15.2 12 Norte 19 Norte 0 -- -- 71
2020-01-08 15:00:00 15.8 8 Nordeste 19 Nordeste 0 -- -- 64
2020-01-08 14:00:00 16.7 3 Noroeste 6 Norte 0 -- -- 66
2020-01-08 13:00:00 14.8 2 Sudeste 5 Sur 0 -- -- 79
2020-01-08 12:00:00 12.7 3 Sudoeste 5 Sudoeste 0 -- -- 92
2020-01-08 11:00:00 9.2 3 Sudoeste 8 Sudoeste 0 -- -- 100
2020-01-08 10:00:00 6.8 2 Sur 10 Sudoeste 0 -- -- 100
2020-01-08 09:00:00 5.3 7 Sudoeste 10 Sudoeste 0 -- -- 100
2020-01-08 08:00:00 5.4 3 Sudoeste 8 Sudoeste 0 -- -- 100
2020-01-08 07:00:00 5.6 4 Sudoeste 9 Oeste 0 -- -- 100
2020-01-08 06:00:00 5.8 2 Sur 9 Sudoeste 0 -- -- 100
2020-01-08 05:00:00 5.8 5 Sudoeste 9 Oeste 0 -- -- 100
2020-01-08 04:00:00 6.2 5 Sudoeste 8 Sudoeste 0 -- -- 100
2020-01-08 03:00:00 6.3 6 Sudoeste 9 Sudoeste 0 -- -- 100
2020-01-08 02:00:00 6.5 0 Calma 9 Oeste 0 -- -- 100
2020-01-08 01:00:00 6.7 5 Sudoeste 10 Sudoeste 0 -- -- 99
2020-01-08 00:00:00 6.6 8 Sudoeste 12 Oeste 0 -- -- 99
2020-01-07 23:00:00 6.9 8 Sudoeste 11 Sudoeste 0 -- -- 99
2020-01-07 22:00:00 7.4 5 Sudoeste 8 Sudoeste 0 -- -- 97
2020-01-07 21:00:00 8 5 Sudoeste 8 Oeste 0 -- -- 96
2020-01-07 20:00:00 9.4 3 Sudoeste 6 Sudoeste 0 -- -- 92
2020-01-07 19:00:00 10.4 3 Sudeste 12 Norte 0 -- -- 87
2020-01-07 18:00:00 11.6 9 Nordeste 20 Nordeste 0 -- -- 83
2020-01-07 17:00:00 13.9 7 Nordeste 13 Nordeste 0 -- -- 76
2020-01-07 16:00:00 15.2 8 Nordeste 13 Norte 0 -- -- 72
2020-01-07 15:00:00 15.5 5 Nordeste 9 Nordeste 0 -- -- 68
2020-01-07 14:00:00 15 0 Calma 5 Este 0 -- -- 68
2020-01-07 13:00:00 13.4 4 Este 7 Oeste 0 -- -- 78
2020-01-07 12:00:00 10.1 2 Sudoeste 12 Sudoeste 0 -- -- 91
2020-01-07 11:00:00 6.2 6 Sudoeste 10 Sudoeste 0 -- -- 100
2020-01-07 10:00:00 5.3 5 Sudoeste 10 Sudoeste 0 -- -- 100
2020-01-07 09:00:00 3.8 6 Oeste 11 Oeste 0 -- -- 100
2020-01-07 08:00:00 4.1 7 Sudoeste 13 Sudoeste 0 -- -- 100
2020-01-07 07:00:00 4.5 6 Sudoeste 10 Sudoeste 0 -- -- 100
2020-01-07 06:00:00 4.7 6 Sudoeste 10 Sudoeste 0 -- -- 100
2020-01-07 05:00:00 4.9 9 Sudoeste 12 Sudoeste 0 -- -- 100
2020-01-07 04:00:00 6 2 Oeste 4 Oeste 0 -- -- 100
2020-01-07 03:00:00 5.9 5 Sur 12 Sudoeste 0 -- -- 100
2020-01-07 02:00:00 5.9 9 Sudoeste 15 Sudoeste 0 -- -- 100
2020-01-07 01:00:00 5.8 8 Sudoeste 14 Sudoeste 0 -- -- 100
2020-01-07 00:00:00 5.2 11 Sudoeste 14 Sudoeste 0 -- -- 100
2020-01-06 23:00:00 5.5 3 Sudoeste 12 Sudoeste 0 -- -- 99
2020-01-06 22:00:00 5.9 9 Sudoeste 15 Sudoeste 0 -- -- 99
2020-01-06 21:00:00 6.1 10 Sudoeste 14 Sudoeste 0 -- -- 97
2020-01-06 20:00:00 7.1 8 Sudoeste 12 Sudoeste 0 -- -- 95
2020-01-06 19:00:00 8.6 0 Calma 15 Sudoeste 0 -- -- 92
2020-01-06 18:00:00 10.1 11 Sudoeste 15 Sudoeste 0 -- -- 87
2020-01-06 17:00:00 12.1 6 Norte 23 Noroeste 0 -- -- 79
2020-01-06 16:00:00 13.2 14 Noroeste 23 Noroeste 0 -- -- 69
2020-01-06 15:00:00 14 8 Norte 15 Noroeste 0 -- -- 59
2020-01-06 14:00:00 13.2 2 Sudeste 8 Este 0 -- -- 66
2020-01-06 13:00:00 11.6 4 Sur 10 Sudoeste 0 -- -- 71
2020-01-06 12:00:00 8.5 7 Sudoeste 13 Sudoeste 0 -- -- 89
2020-01-06 11:00:00 5.4 2 Sudoeste 9 Sudoeste 0 -- -- 100
2020-01-06 10:00:00 2.1 6 Sudoeste 12 Sudoeste 0 -- -- 100